Zenith Leader — 2ACU6 — position and weather

sailwx.info

Track history (hours):
 
Tides and Currents Weather Stations Pressure Air Temp Water Temp Dewpoint Dewpoint Depression Visibility Wind Speed Wind Dir Waves Ship Positions

Zenith Leader

Last reported at 2014-Jul-31 02:27 UTC. Time now 2014-Jul-31 03:22 UTC.
Position N 33°20' E 033°49'.

Length 199 m; draft 8.6 m.

Type: Cargo ship. MMSI: 235058697.

Date/timePositionNaut miles runAvg speedWind from/ knotsBaromVisibWave heightAir tempDewpointWater temp
2014-Jul-31 02:27N 33°20' E 033°49'1516.0
2014-Jul-31 01:32N 33°27' E 034°05'1616.3
2014-Jul-31 00:33N 33°34' E 034°22'1816.2
2014-Jul-30 23:28N 33°43' E 034°40'1515.9
2014-Jul-30 22:31N 33°50' E 034°56'1515.6
2014-Jul-30 21:32N 33°56' E 035°13'1514.6
2014-Jul-30 20:31N 33°57' E 035°31'3 1.1
2014-Jul-30 18:08N 33°54' E 035°31'0 0.0
2014-Jul-30 17:29N 33°54' E 035°31'0 0.0
2014-Jul-30 16:32N 33°54' E 035°31'0 0.0
2014-Jul-30 15:32N 33°54' E 035°31'0 0.1
2014-Jul-30 14:33N 33°54' E 035°31'10 5.0
2014-Jul-30 12:33N 33°55' E 035°19'8 7.6
2014-Jul-30 11:33N 34°01' E 035°13'2115.6
2014-Jul-30 10:11N 34°23' E 035°14'39 1.3
2014-Jul-29 05:19N 34°51' E 034°41'1216.2
2014-Jul-29 04:33N 34°40' E 034°34'1716.0
2014-Jul-29 03:29N 34°24' E 034°25'1516.1
2014-Jul-29 02:33N 34°11' E 034°16'1616.0
2014-Jul-29 01:33N 33°58' E 034°06'1615.9
2014-Jul-29 00:33N 33°44' E 033°57'1615.8
2014-Jul-28 23:32N 33°29' E 033°48'1515.8
2014-Jul-28 22:33N 33°16' E 033°39'1615.9
2014-Jul-28 21:33N 33°02' E 033°30'1616.2
2014-Jul-28 20:33N 32°48' E 033°21'1616.2
2014-Jul-28 19:33N 32°33' E 033°12'1616.1
2014-Jul-28 18:33N 32°19' E 033°02'1615.9
2014-Jul-28 17:33N 32°05' E 032°53'1615.7
2014-Jul-28 16:33N 31°51' E 032°45'1515.3
2014-Jul-28 15:33N 31°40' E 032°33'1313.3
2014-Jul-28 14:33N 31°29' E 032°24'1413.6
2014-Jul-28 13:33N 31°16' E 032°21'9 8.5
2014-Jul-28 12:33N 31°07' E 032°19'77 7.5
2014-Jul-28 02:12N 29°51' E 032°34'  
Track history (hours):
 
Tides and Currents Weather Stations Pressure Air Temp Water Temp Dewpoint Dewpoint Depression Visibility Wind Speed Wind Dir Waves Ship Positions

Zenith Leader

Last reported at 2014-Jul-31 02:27 UTC. Time now 2014-Jul-31 03:22 UTC.
Position N 33°20' E 033°49'.

Length 199 m; draft 8.6 m.

Type: Cargo ship. MMSI: 235058697.

Date/timePositionNaut miles runAvg speedWind from/ knotsBaromVisibWave heightAir tempDewpointWater temp
2014-Jul-31 02:27N 33°20' E 033°49'1516.0
2014-Jul-31 01:32N 33°27' E 034°05'1616.3
2014-Jul-31 00:33N 33°34' E 034°22'1816.2
2014-Jul-30 23:28N 33°43' E 034°40'1515.9
2014-Jul-30 22:31N 33°50' E 034°56'1515.6
2014-Jul-30 21:32N 33°56' E 035°13'1514.6
2014-Jul-30 20:31N 33°57' E 035°31'3 1.1
2014-Jul-30 18:08N 33°54' E 035°31'0 0.0
2014-Jul-30 17:29N 33°54' E 035°31'0 0.0
2014-Jul-30 16:32N 33°54' E 035°31'0 0.0
2014-Jul-30 15:32N 33°54' E 035°31'0 0.1
2014-Jul-30 14:33N 33°54' E 035°31'10 5.0
2014-Jul-30 12:33N 33°55' E 035°19'8 7.6
2014-Jul-30 11:33N 34°01' E 035°13'2115.6
2014-Jul-30 10:11N 34°23' E 035°14'39 1.3
2014-Jul-29 05:19N 34°51' E 034°41'1216.2
2014-Jul-29 04:33N 34°40' E 034°34'1716.0
2014-Jul-29 03:29N 34°24' E 034°25'1516.1
2014-Jul-29 02:33N 34°11' E 034°16'1616.0
2014-Jul-29 01:33N 33°58' E 034°06'1615.9
2014-Jul-29 00:33N 33°44' E 033°57'1615.8
2014-Jul-28 23:32N 33°29' E 033°48'1515.8
2014-Jul-28 22:33N 33°16' E 033°39'1615.9
2014-Jul-28 21:33N 33°02' E 033°30'1616.2
2014-Jul-28 20:33N 32°48' E 033°21'1616.2
2014-Jul-28 19:33N 32°33' E 033°12'1616.1
2014-Jul-28 18:33N 32°19' E 033°02'1615.9
2014-Jul-28 17:33N 32°05' E 032°53'1615.7
2014-Jul-28 16:33N 31°51' E 032°45'1515.3
2014-Jul-28 15:33N 31°40' E 032°33'1313.3
2014-Jul-28 14:33N 31°29' E 032°24'1413.6
2014-Jul-28 13:33N 31°16' E 032°21'9 8.5
2014-Jul-28 12:33N 31°07' E 032°19'77 7.5
2014-Jul-28 02:12N 29°51' E 032°34'  

Dump ship's entire track history